createdAt,value
2022-12-18T00:00:51.631Z,9.680301
2022-12-18T00:01:51.680Z,9.680657
2022-12-18T00:02:51.692Z,9.680780
2022-12-18T00:03:51.798Z,9.680792
2022-12-18T00:04:51.611Z,9.680792
2022-12-18T00:05:51.626Z,9.680111
2022-12-18T00:06:51.602Z,9.680161
2022-12-18T00:07:51.596Z,9.680161
2022-12-18T00:08:51.603Z,9.680161
2022-12-18T00:09:51.599Z,9.680161
2022-12-18T00:10:51.589Z,9.680161
2022-12-18T00:11:51.571Z,9.680161
2022-12-18T00:12:51.558Z,9.681038
2022-12-18T00:13:51.562Z,9.681038
2022-12-18T00:14:51.583Z,9.680733
2022-12-18T00:15:51.599Z,9.680681
2022-12-18T00:16:51.556Z,9.680539
2022-12-18T00:17:51.539Z,9.680324
2022-12-18T00:18:51.525Z,9.680081
2022-12-18T00:19:51.523Z,9.680081
2022-12-18T00:20:51.535Z,9.680081
2022-12-18T00:21:51.529Z,9.680192
2022-12-18T00:22:51.498Z,9.680000
2022-12-18T00:23:51.502Z,9.680000
2022-12-18T00:24:51.501Z,9.680000
2022-12-18T00:25:51.496Z,9.680000
2022-12-18T00:26:51.500Z,9.680000
2022-12-18T00:27:51.533Z,9.680000
2022-12-18T00:28:51.475Z,9.680000
2022-12-18T00:29:52.132Z,9.680000
2022-12-18T00:30:51.450Z,9.680000
2022-12-18T00:31:51.580Z,9.680000
2022-12-18T00:32:51.474Z,9.680000
2022-12-18T00:33:54.530Z,9.680000
2022-12-18T00:34:51.468Z,9.680000
2022-12-18T00:35:51.449Z,9.680000
2022-12-18T00:36:51.439Z,9.680000
2022-12-18T00:37:51.409Z,9.680000
2022-12-18T00:38:51.411Z,9.680000
2022-12-18T00:39:51.411Z,9.680000
2022-12-18T00:40:51.426Z,9.680000
2022-12-18T00:41:51.437Z,9.680000
2022-12-18T00:42:51.423Z,9.680000
2022-12-18T00:43:51.372Z,9.680000
2022-12-18T00:44:51.381Z,9.680000
2022-12-18T00:45:51.434Z,9.680000
2022-12-18T00:46:51.395Z,9.680000
2022-12-18T00:47:51.533Z,9.680000
2022-12-18T00:48:51.349Z,9.680000
2022-12-18T00:49:51.350Z,9.680000
2022-12-18T00:50:51.351Z,9.680577
2022-12-18T00:51:51.333Z,9.680840
2022-12-18T00:52:51.328Z,9.681066
2022-12-18T00:53:51.362Z,9.681308
2022-12-18T00:54:51.401Z,9.681034
2022-12-18T00:55:51.358Z,9.681168
2022-12-18T00:56:51.332Z,9.681170
2022-12-18T00:57:51.309Z,9.680959
2022-12-18T00:58:51.295Z,9.680982
2022-12-18T00:59:51.303Z,9.680882
2022-12-18T01:00:51.655Z,9.680898
2022-12-18T01:01:51.465Z,9.680632
2022-12-18T01:02:51.382Z,9.680812
2022-12-18T01:03:51.281Z,9.681093
2022-12-18T01:04:51.293Z,9.681053
2022-12-18T01:05:51.290Z,9.681149
2022-12-18T01:06:51.266Z,9.680811
2022-12-18T01:07:51.241Z,9.680920
2022-12-18T01:08:51.273Z,9.680741
2022-12-18T01:09:51.216Z,9.681072
2022-12-18T01:10:51.354Z,9.681249
2022-12-18T01:11:51.221Z,9.680818
2022-12-18T01:12:51.208Z,9.680764
2022-12-18T01:13:51.197Z,9.680917
2022-12-18T01:14:51.222Z,9.680923
2022-12-18T01:15:51.256Z,9.680974
2022-12-18T01:16:51.194Z,9.680802
2022-12-18T01:17:51.226Z,9.680650
2022-12-18T01:18:51.297Z,9.680993
2022-12-18T01:19:51.169Z,9.680786
2022-12-18T01:20:51.150Z,9.681012
2022-12-18T01:21:51.146Z,9.680865
2022-12-18T01:22:51.149Z,9.681104
2022-12-18T01:23:51.162Z,9.680905
2022-12-18T01:24:51.126Z,9.681121
2022-12-18T01:25:51.116Z,9.681185
2022-12-18T01:26:51.111Z,9.681106
2022-12-18T01:27:51.112Z,9.681055
2022-12-18T01:28:51.118Z,9.681049
2022-12-18T01:29:51.105Z,9.680988
2022-12-18T01:30:51.110Z,9.681162
2022-12-18T01:31:51.151Z,9.681148
2022-12-18T01:32:51.215Z,9.681091
2022-12-18T01:33:51.093Z,9.681034
2022-12-18T01:34:51.117Z,9.680852
2022-12-18T01:35:51.067Z,9.680999
2022-12-18T01:36:51.063Z,9.680870
2022-12-18T01:37:51.079Z,9.680860
2022-12-18T01:38:51.082Z,9.681105
2022-12-18T01:39:51.092Z,9.681026
2022-12-18T01:40:51.197Z,9.681200
2022-12-18T01:41:51.034Z,9.681001
2022-12-18T01:42:51.103Z,9.681093
2022-12-18T01:43:51.047Z,9.680890
2022-12-18T01:44:51.028Z,9.681710
2022-12-18T01:45:51.073Z,9.681393
2022-12-18T01:46:51.227Z,9.681063
2022-12-18T01:47:51.009Z,9.681026
2022-12-18T01:48:51.018Z,9.681099
2022-12-18T01:49:50.995Z,9.681014
2022-12-18T01:50:50.984Z,9.681118
2022-12-18T01:51:51.012Z,9.681185
2022-12-18T01:52:51.053Z,9.681396
2022-12-18T01:53:50.968Z,9.681616
2022-12-18T01:54:51.029Z,9.681148
2022-12-18T01:55:51.002Z,9.681023
2022-12-18T01:56:50.958Z,9.680973
2022-12-18T01:57:51.009Z,9.680915
2022-12-18T01:58:50.955Z,9.680858
2022-12-18T01:59:50.924Z,9.681078
2022-12-18T02:00:51.012Z,9.680909
2022-12-18T02:01:50.980Z,9.681116
2022-12-18T02:02:51.063Z,9.681167
2022-12-18T02:03:50.929Z,9.680731
2022-12-18T02:04:50.917Z,9.680728
2022-12-18T02:05:50.924Z,9.681584
2022-12-18T02:06:50.932Z,9.681247
2022-12-18T02:07:50.880Z,9.681385
2022-12-18T02:08:50.886Z,9.683082
2022-12-18T02:09:50.897Z,9.681906
2022-12-18T02:10:50.880Z,9.680892
2022-12-18T02:11:50.900Z,9.681149
2022-12-18T02:12:50.937Z,9.681473
2022-12-18T02:13:50.868Z,9.681079
2022-12-18T02:14:50.852Z,9.680785
2022-12-18T02:15:50.848Z,9.681340
2022-12-18T02:16:50.861Z,9.681514
2022-12-18T02:17:50.818Z,9.681459
2022-12-18T02:18:50.888Z,9.681449
2022-12-18T02:19:50.817Z,9.681019
2022-12-18T02:20:50.818Z,9.681559
2022-12-18T02:21:50.861Z,9.680901
2022-12-18T02:22:50.847Z,9.680811
2022-12-18T02:23:50.794Z,9.680799
2022-12-18T02:24:50.795Z,9.680753
2022-12-18T02:25:50.779Z,9.680819
2022-12-18T02:26:50.763Z,9.681105
2022-12-18T02:27:50.798Z,9.680777
2022-12-18T02:28:57.842Z,9.680617
2022-12-18T02:29:57.635Z,9.681166
2022-12-18T02:30:51.819Z,9.681311
2022-12-18T02:31:50.758Z,9.680920
2022-12-18T02:32:50.739Z,9.680926
2022-12-18T02:33:50.749Z,9.681275
2022-12-18T02:34:50.719Z,9.680861
2022-12-18T02:35:50.716Z,9.680745
2022-12-18T02:36:50.719Z,9.680869
2022-12-18T02:37:50.726Z,9.680894
2022-12-18T02:38:50.695Z,9.681020
2022-12-18T02:39:50.710Z,9.682070
2022-12-18T02:40:50.687Z,9.681934
2022-12-18T02:41:50.703Z,9.681259
2022-12-18T02:42:50.664Z,9.681228
2022-12-18T02:43:50.661Z,9.681299
2022-12-18T02:44:50.744Z,9.681093
2022-12-18T02:45:50.705Z,9.680769
2022-12-18T02:46:50.664Z,9.680893
2022-12-18T02:47:50.668Z,9.680552
2022-12-18T02:48:50.639Z,9.681035
2022-12-18T02:49:50.639Z,9.680678
2022-12-18T02:50:50.628Z,9.680907
2022-12-18T02:51:50.623Z,9.681044
2022-12-18T02:52:50.633Z,9.680773
2022-12-18T02:53:50.605Z,9.680891
2022-12-18T02:54:51.432Z,9.681129
2022-12-18T02:55:50.587Z,9.680713
2022-12-18T02:56:50.571Z,9.680773
2022-12-18T02:57:50.574Z,9.680895
2022-12-18T02:58:50.561Z,9.680767
2022-12-18T02:59:50.585Z,9.681029
2022-12-18T03:00:50.720Z,9.680989
2022-12-18T03:01:50.698Z,9.680981
2022-12-18T03:02:50.612Z,9.680601
2022-12-18T03:03:50.552Z,9.680761
2022-12-18T03:04:50.534Z,9.680888
2022-12-18T03:05:50.523Z,9.680847
2022-12-18T03:06:50.545Z,9.680996
2022-12-18T03:07:50.513Z,9.680932
2022-12-18T03:08:50.503Z,9.681035
2022-12-18T03:09:50.505Z,9.681225
2022-12-18T03:10:50.505Z,9.681089
2022-12-18T03:11:50.514Z,9.681145
2022-12-18T03:12:50.486Z,9.680921
2022-12-18T03:13:50.478Z,9.680892
2022-12-18T03:14:50.469Z,9.681234
2022-12-18T03:15:50.466Z,9.681149
2022-12-18T03:16:50.611Z,9.681139
2022-12-18T03:17:50.463Z,9.680972
2022-12-18T03:18:50.449Z,9.680833
2022-12-18T03:19:50.456Z,9.681043
2022-12-18T03:20:50.434Z,9.681154
2022-12-18T03:21:50.452Z,9.680833
2022-12-18T03:22:50.426Z,9.680739
2022-12-18T03:23:50.417Z,9.680817
2022-12-18T03:24:50.413Z,9.680414
2022-12-18T03:25:50.408Z,9.680829
2022-12-18T03:26:50.417Z,9.680874
2022-12-18T03:27:50.428Z,9.680853
2022-12-18T03:28:50.385Z,9.681065
2022-12-18T03:29:50.389Z,9.681200
2022-12-18T03:30:50.405Z,9.681085
2022-12-18T03:31:50.375Z,9.681187
2022-12-18T03:32:50.439Z,9.681446
2022-12-18T03:33:50.390Z,9.681151
2022-12-18T03:34:50.361Z,9.680938
2022-12-18T03:35:50.351Z,9.681139
2022-12-18T03:36:50.340Z,9.681023
2022-12-18T03:37:50.338Z,9.681095
2022-12-18T03:38:50.327Z,9.681225
2022-12-18T03:39:50.364Z,9.681123
2022-12-18T03:40:50.312Z,9.681113
2022-12-18T03:41:50.322Z,9.681155
2022-12-18T03:42:50.304Z,9.680938
2022-12-18T03:43:50.326Z,9.681087
2022-12-18T03:44:50.298Z,9.681215
2022-12-18T03:45:50.397Z,9.681095
2022-12-18T03:46:50.308Z,9.681012
2022-12-18T03:47:50.284Z,9.681325
2022-12-18T03:48:50.355Z,9.681425
2022-12-18T03:49:50.274Z,9.681290
2022-12-18T03:50:50.256Z,9.681357
2022-12-18T03:51:50.266Z,9.681117
2022-12-18T03:52:50.268Z,9.681010
2022-12-18T03:53:50.250Z,9.681000
2022-12-18T03:54:50.238Z,9.681069
2022-12-18T03:55:50.261Z,9.680763
2022-12-18T03:56:50.247Z,9.680997
2022-12-18T03:57:50.229Z,9.681078
2022-12-18T03:58:50.215Z,9.680923
2022-12-18T03:59:50.213Z,9.680780
2022-12-18T04:00:50.203Z,9.681128
2022-12-18T04:01:50.340Z,9.680931
2022-12-18T04:02:50.182Z,9.680931
2022-12-18T04:03:50.223Z,9.681074
2022-12-18T04:04:50.247Z,9.681350
2022-12-18T04:05:50.170Z,9.681159
2022-12-18T04:06:50.162Z,9.681631
2022-12-18T04:07:50.191Z,9.681631
2022-12-18T04:08:50.156Z,9.681631
2022-12-18T04:09:50.150Z,9.681244
2022-12-18T04:10:50.142Z,9.681253
2022-12-18T04:11:50.136Z,9.681391
2022-12-18T04:12:50.133Z,9.681567
2022-12-18T04:13:50.148Z,9.681001
2022-12-18T04:14:50.111Z,9.681263
2022-12-18T04:15:50.168Z,9.681117
2022-12-18T04:16:50.104Z,9.681044
2022-12-18T04:17:50.097Z,9.680973
2022-12-18T04:18:50.095Z,9.680671
2022-12-18T04:19:50.112Z,9.681170
2022-12-18T04:20:50.161Z,9.680914
2022-12-18T04:21:50.078Z,9.680882
2022-12-18T04:22:50.072Z,9.681253
2022-12-18T04:23:50.064Z,9.681445
2022-12-18T04:24:50.069Z,9.681429
2022-12-18T04:25:50.050Z,9.681250
2022-12-18T04:26:50.042Z,9.681689
2022-12-18T04:27:50.057Z,9.681537
2022-12-18T04:28:50.026Z,9.681629
2022-12-18T04:29:50.026Z,9.681629
2022-12-18T04:30:50.088Z,9.681232
2022-12-18T04:31:50.008Z,9.681435
2022-12-18T04:32:52.291Z,9.680660
2022-12-18T04:33:49.996Z,9.680664
2022-12-18T04:34:49.992Z,9.680401
2022-12-18T04:35:50.001Z,9.680400
2022-12-18T04:36:50.056Z,9.680299
2022-12-18T04:37:49.974Z,9.680429
2022-12-18T04:38:49.993Z,9.680467
2022-12-18T04:39:49.974Z,9.681067
2022-12-18T04:40:49.952Z,9.681180
2022-12-18T04:41:49.944Z,9.681194
2022-12-18T04:42:49.956Z,9.681237
2022-12-18T04:43:49.938Z,9.681390
2022-12-18T04:44:49.949Z,9.681472
2022-12-18T04:45:49.933Z,9.681452
2022-12-18T04:46:49.990Z,9.681536
2022-12-18T04:47:49.904Z,9.681257
2022-12-18T04:48:49.905Z,9.681418
2022-12-18T04:49:49.896Z,9.681339
2022-12-18T04:50:49.910Z,9.680940
2022-12-18T04:51:49.880Z,9.681150
2022-12-18T04:52:49.974Z,9.681594
2022-12-18T04:53:49.872Z,9.681838
2022-12-18T04:54:49.859Z,9.681818
2022-12-18T04:55:49.856Z,9.681327
2022-12-18T04:56:49.854Z,9.681265
2022-12-18T04:57:49.841Z,9.681934
2022-12-18T04:58:49.862Z,9.681447
2022-12-18T04:59:49.837Z,9.681136
2022-12-18T05:00:49.822Z,9.681476
2022-12-18T05:01:49.874Z,9.681468
2022-12-18T05:02:49.975Z,9.681674
2022-12-18T05:03:49.908Z,9.681690
2022-12-18T05:04:49.804Z,9.681495
2022-12-18T05:05:49.797Z,9.681330
2022-12-18T05:06:49.805Z,9.681237
2022-12-18T05:07:49.806Z,9.680689
2022-12-18T05:08:49.856Z,9.680136
2022-12-18T05:09:49.773Z,9.680136
2022-12-18T05:10:49.795Z,9.680569
2022-12-18T05:11:49.759Z,9.680917
2022-12-18T05:12:49.745Z,9.681609
2022-12-18T05:13:49.766Z,9.681685
2022-12-18T05:14:49.742Z,9.681476
2022-12-18T05:15:49.762Z,9.681182
2022-12-18T05:16:49.726Z,9.681121
2022-12-18T05:17:49.725Z,9.681247
2022-12-18T05:18:49.714Z,9.681106
2022-12-18T05:19:49.736Z,9.680978
2022-12-18T05:20:49.697Z,9.680953
2022-12-18T05:21:49.691Z,9.681037
2022-12-18T05:22:49.711Z,9.681124
2022-12-18T05:23:49.702Z,9.681263
2022-12-18T05:24:49.765Z,9.681544
2022-12-18T05:25:49.682Z,9.682014
2022-12-18T05:26:49.670Z,9.682019
2022-12-18T05:27:49.694Z,9.681126
2022-12-18T05:28:49.665Z,9.681000
2022-12-18T05:29:49.671Z,9.681561
2022-12-18T05:30:49.713Z,9.681438
2022-12-18T05:31:49.667Z,9.682291
2022-12-18T05:32:49.637Z,9.681615
2022-12-18T05:33:49.643Z,9.681105
2022-12-18T05:34:49.621Z,9.680784
2022-12-18T05:35:49.629Z,9.681180
2022-12-18T05:36:49.630Z,9.681110
2022-12-18T05:37:49.609Z,9.680990
2022-12-18T05:38:49.607Z,9.681035
2022-12-18T05:39:49.591Z,9.681074
2022-12-18T05:40:49.671Z,9.681122
2022-12-18T05:41:49.608Z,9.680986
2022-12-18T05:42:49.577Z,9.680803
2022-12-18T05:43:49.585Z,9.680823
2022-12-18T05:44:49.567Z,9.680693
2022-12-18T05:45:49.565Z,9.680590
2022-12-18T05:46:49.715Z,9.680672
2022-12-18T05:47:49.565Z,9.680454
2022-12-18T05:48:49.536Z,9.680207
2022-12-18T05:49:49.536Z,9.680218
2022-12-18T05:50:49.549Z,9.680416
2022-12-18T05:51:49.515Z,9.680457
2022-12-18T05:52:49.526Z,9.680432
2022-12-18T05:53:49.508Z,9.680415
2022-12-18T05:54:49.529Z,9.680349
2022-12-18T05:55:49.506Z,9.680500
2022-12-18T05:56:49.624Z,9.680429
2022-12-18T05:57:49.491Z,9.680517
2022-12-18T05:58:49.484Z,9.680628
2022-12-18T05:59:49.497Z,9.680628
2022-12-18T06:00:49.478Z,9.680628
2022-12-18T06:01:49.625Z,9.680628
2022-12-18T06:02:49.596Z,9.680628
2022-12-18T06:03:49.509Z,9.680628
2022-12-18T06:04:49.445Z,9.680628
2022-12-18T06:05:49.441Z,9.680628
2022-12-18T06:06:49.454Z,9.680628
2022-12-18T06:07:49.439Z,9.680628
2022-12-18T06:08:49.449Z,9.680628
2022-12-18T06:09:49.418Z,9.680628
2022-12-18T06:10:49.420Z,9.680628
2022-12-18T06:11:49.409Z,9.680628
2022-12-18T06:12:49.479Z,9.680628
2022-12-18T06:13:52.434Z,9.680628
2022-12-18T06:14:50.396Z,9.680628
2022-12-18T06:15:49.438Z,9.680628
2022-12-18T06:16:49.386Z,9.680628
2022-12-18T06:17:49.391Z,9.680628
2022-12-18T06:18:49.368Z,9.680628
2022-12-18T06:19:49.376Z,9.680628
2022-12-18T06:20:49.378Z,9.680628
2022-12-18T06:21:49.362Z,9.680628
2022-12-18T06:22:49.355Z,9.680628
2022-12-18T06:23:49.351Z,9.680628
2022-12-18T06:24:49.339Z,9.680628
2022-12-18T06:25:49.352Z,9.680628
2022-12-18T06:26:49.341Z,9.681049
2022-12-18T06:27:49.324Z,9.681171
2022-12-18T06:28:49.388Z,9.681347
2022-12-18T06:29:49.306Z,9.681347
2022-12-18T06:30:49.320Z,9.681471
2022-12-18T06:31:49.357Z,9.681137
2022-12-18T06:32:54.636Z,9.681318
2022-12-18T06:33:50.289Z,9.681541
2022-12-18T06:34:49.286Z,9.681529
2022-12-18T06:35:49.280Z,9.681696
2022-12-18T06:36:49.279Z,9.681928
2022-12-18T06:37:49.253Z,9.681613
2022-12-18T06:38:49.253Z,9.681752
2022-12-18T06:39:49.261Z,9.681608
2022-12-18T06:40:49.243Z,9.681521
2022-12-18T06:41:49.237Z,9.681230
2022-12-18T06:42:49.243Z,9.681551
2022-12-18T06:43:49.249Z,9.681381
2022-12-18T06:44:55.143Z,9.681291
2022-12-18T06:45:50.394Z,9.681401
2022-12-18T06:46:49.239Z,9.681471
2022-12-18T06:47:49.208Z,9.681543
2022-12-18T06:48:49.198Z,9.681185
2022-12-18T06:49:49.199Z,9.681308
2022-12-18T06:50:49.176Z,9.681320
2022-12-18T06:51:49.181Z,9.681239
2022-12-18T06:52:49.188Z,9.681537
2022-12-18T06:53:49.165Z,9.681280
2022-12-18T06:54:49.182Z,9.681226
2022-12-18T06:55:49.152Z,9.681141
2022-12-18T06:56:49.169Z,9.681357
2022-12-18T06:57:49.151Z,9.681264
2022-12-18T06:58:49.135Z,9.681355
2022-12-18T06:59:49.133Z,9.681361
2022-12-18T07:00:49.175Z,9.681384
2022-12-18T07:01:49.378Z,9.681341
2022-12-18T07:02:49.210Z,9.681549
2022-12-18T07:03:49.107Z,9.681493
2022-12-18T07:04:49.095Z,9.681242
2022-12-18T07:05:49.091Z,9.681269
2022-12-18T07:06:49.079Z,9.681267
2022-12-18T07:07:49.079Z,9.681112
2022-12-18T07:08:49.095Z,9.681310
2022-12-18T07:09:49.067Z,9.681305
2022-12-18T07:10:54.339Z,9.681420
2022-12-18T07:11:50.077Z,9.681275
2022-12-18T07:12:49.049Z,9.681089
2022-12-18T07:13:49.046Z,9.681175
2022-12-18T07:14:49.053Z,9.681093
2022-12-18T07:15:49.027Z,9.681136
2022-12-18T07:16:49.057Z,9.681349
2022-12-18T07:17:49.100Z,9.681397
2022-12-18T07:18:49.030Z,9.681131
2022-12-18T07:19:49.019Z,9.680910
2022-12-18T07:20:49.010Z,9.681053
2022-12-18T07:21:49.000Z,9.681890
2022-12-18T07:22:53.355Z,9.681917
2022-12-18T07:23:50.006Z,9.681846
2022-12-18T07:24:48.983Z,9.681482
2022-12-18T07:25:48.997Z,9.681513
2022-12-18T07:26:48.976Z,9.681307
2022-12-18T07:27:48.964Z,9.680452
2022-12-18T07:28:48.949Z,9.680786
2022-12-18T07:29:48.981Z,9.681411
2022-12-18T07:30:48.974Z,9.681717
2022-12-18T07:31:49.013Z,9.681427
2022-12-18T07:32:48.934Z,9.681435
2022-12-18T07:33:49.046Z,9.681164
2022-12-18T07:34:48.926Z,9.680901
2022-12-18T07:35:48.923Z,9.681530
2022-12-18T07:36:48.919Z,9.681157
2022-12-18T07:37:48.907Z,9.681274
2022-12-18T07:38:48.905Z,9.682053
2022-12-18T07:39:48.927Z,9.681046
2022-12-18T07:40:48.893Z,9.680580
2022-12-18T07:41:48.897Z,9.681099
2022-12-18T07:42:48.884Z,9.681700
2022-12-18T07:43:48.885Z,9.681241
2022-12-18T07:44:48.872Z,9.681448
2022-12-18T07:45:48.938Z,9.680955
2022-12-18T07:46:48.860Z,9.680691
2022-12-18T07:47:48.854Z,9.680569
2022-12-18T07:48:49.704Z,9.680369
2022-12-18T07:49:48.917Z,9.680693
2022-12-18T07:50:48.830Z,9.681198
2022-12-18T07:51:48.853Z,9.680985
2022-12-18T07:52:48.846Z,9.681216
2022-12-18T07:53:51.313Z,9.681406
2022-12-18T07:54:48.817Z,9.681032
2022-12-18T07:56:18.456Z,9.680886
2022-12-18T07:56:49.807Z,9.680746
2022-12-18T07:57:51.830Z,9.680790
2022-12-18T07:58:48.786Z,9.681586
2022-12-18T07:59:48.786Z,9.681553
2022-12-18T08:00:48.819Z,9.681553
2022-12-18T08:01:48.937Z,9.681659
2022-12-18T08:02:49.000Z,9.681659
2022-12-18T08:03:48.768Z,9.681067
2022-12-18T08:04:48.754Z,9.681354
2022-12-18T08:05:48.847Z,9.680491
2022-12-18T08:06:48.742Z,9.680834
2022-12-18T08:07:48.738Z,9.680935
2022-12-18T08:08:48.748Z,9.680776
2022-12-18T08:09:48.727Z,9.681001
2022-12-18T08:10:48.743Z,9.680420
2022-12-18T08:11:48.715Z,9.680526
2022-12-18T08:12:48.706Z,9.680251
2022-12-18T08:13:48.701Z,9.678931
2022-12-18T08:14:48.707Z,9.679945
2022-12-18T08:15:48.699Z,9.679984
2022-12-18T08:16:48.726Z,9.679984
2022-12-18T08:17:48.705Z,9.679984
2022-12-18T08:18:48.668Z,9.681039
2022-12-18T08:19:48.674Z,9.680824
2022-12-18T08:20:48.664Z,9.680355
2022-12-18T08:21:48.739Z,9.680536
2022-12-18T08:22:48.682Z,9.680572
2022-12-18T08:23:49.046Z,9.680655
2022-12-18T08:24:48.664Z,9.680663
2022-12-18T08:25:48.635Z,9.680393
2022-12-18T08:27:06.663Z,9.680768
2022-12-18T08:27:49.635Z,9.680472
2022-12-18T08:28:48.610Z,9.680800
2022-12-18T08:29:48.611Z,9.680773
2022-12-18T08:30:48.639Z,9.680767
2022-12-18T08:31:48.647Z,9.680642
2022-12-18T08:32:48.592Z,9.680844
2022-12-18T08:33:48.610Z,9.680670
2022-12-18T08:34:48.596Z,9.680731
2022-12-18T08:35:48.567Z,9.680242
2022-12-18T08:36:48.578Z,9.680397
2022-12-18T08:37:48.635Z,9.680545
2022-12-18T08:38:48.544Z,9.680548
2022-12-18T08:39:48.563Z,9.680870
2022-12-18T08:40:48.570Z,9.680581
2022-12-18T08:41:48.527Z,9.680564
2022-12-18T08:42:48.535Z,9.680675
2022-12-18T08:43:48.517Z,9.680706
2022-12-18T08:44:48.533Z,9.680933
2022-12-18T08:45:48.610Z,9.680772
2022-12-18T08:46:48.503Z,9.680740
2022-12-18T08:47:48.503Z,9.680481
2022-12-18T08:48:48.493Z,9.680790
2022-12-18T08:49:48.508Z,9.680406
2022-12-18T08:50:48.473Z,9.680431
2022-12-18T08:51:48.487Z,9.680546
2022-12-18T08:52:48.465Z,9.680760
2022-12-18T08:53:48.538Z,9.680116
2022-12-18T08:54:48.472Z,9.680433
2022-12-18T08:55:50.417Z,9.680770
2022-12-18T08:56:48.439Z,9.680866
2022-12-18T08:57:48.432Z,9.680553
2022-12-18T08:58:48.420Z,9.680600
2022-12-18T08:59:48.452Z,9.680602
2022-12-18T09:00:48.417Z,9.680332
2022-12-18T09:01:48.583Z,9.680152
2022-12-18T09:02:48.505Z,9.679430
2022-12-18T09:03:48.401Z,9.676582
2022-12-18T09:04:52.370Z,9.679039
2022-12-18T09:05:48.382Z,9.679634
2022-12-18T09:06:48.382Z,9.679617
2022-12-18T09:07:55.431Z,9.679381
2022-12-18T09:08:48.356Z,9.679489
2022-12-18T09:09:48.456Z,9.679306
2022-12-18T09:10:48.373Z,9.679239
2022-12-18T09:11:48.352Z,9.678809
2022-12-18T09:12:48.343Z,9.678953
2022-12-18T09:13:48.351Z,9.678319
2022-12-18T09:14:48.335Z,9.677959
2022-12-18T09:15:48.318Z,9.677755
2022-12-18T09:16:48.331Z,9.676951
2022-12-18T09:17:48.305Z,9.676958
2022-12-18T09:18:48.298Z,9.675722
2022-12-18T09:19:48.312Z,9.675714
2022-12-18T09:20:48.282Z,9.675636
2022-12-18T09:21:48.820Z,9.675800
2022-12-18T09:22:48.288Z,9.675776
2022-12-18T09:23:48.269Z,9.675780
2022-12-18T09:24:48.252Z,9.675617
2022-12-18T09:25:48.363Z,9.675950
2022-12-18T09:26:48.256Z,9.676384
2022-12-18T09:27:48.239Z,9.676384
2022-12-18T09:28:48.230Z,9.676384
2022-12-18T09:29:48.232Z,9.676384
2022-12-18T09:30:48.298Z,9.675946
2022-12-18T09:31:48.242Z,9.675624
2022-12-18T09:32:48.204Z,9.675694
2022-12-18T09:33:48.411Z,9.675694
2022-12-18T09:34:48.218Z,9.675694
2022-12-18T09:35:48.191Z,9.675694
2022-12-18T09:36:48.189Z,9.678331
2022-12-18T09:37:48.218Z,9.678692
2022-12-18T09:38:48.767Z,9.679077
2022-12-18T09:39:48.173Z,9.679819
2022-12-18T09:40:48.182Z,9.680575
2022-12-18T09:41:48.265Z,9.681287
2022-12-18T09:42:48.471Z,9.681317
2022-12-18T09:43:48.162Z,9.681191
2022-12-18T09:44:48.153Z,9.681546
2022-12-18T09:45:48.172Z,9.681329
2022-12-18T09:46:48.231Z,9.680900
2022-12-18T09:47:48.260Z,9.680889
2022-12-18T09:48:48.117Z,9.681524
2022-12-18T09:49:48.116Z,9.680848
2022-12-18T09:50:48.092Z,9.680672
2022-12-18T09:51:48.102Z,9.681190
2022-12-18T09:52:48.110Z,9.681622
2022-12-18T09:53:48.077Z,9.681435
2022-12-18T09:54:48.057Z,9.681200
2022-12-18T09:55:48.061Z,9.681088
2022-12-18T09:56:48.053Z,9.681109
2022-12-18T09:57:48.121Z,9.680906
2022-12-18T09:58:48.056Z,9.680584
2022-12-18T09:59:48.035Z,9.680794
2022-12-18T10:00:48.035Z,9.680928
2022-12-18T10:01:48.158Z,9.680880
2022-12-18T10:02:48.179Z,9.680697
2022-12-18T10:03:48.012Z,9.680989
2022-12-18T10:04:48.060Z,9.680687
2022-12-18T10:05:48.738Z,9.680656
2022-12-18T10:06:48.014Z,9.680740
2022-12-18T10:07:48.004Z,9.680648
2022-12-18T10:08:48.001Z,9.680450
2022-12-18T10:09:47.991Z,9.680315
2022-12-18T10:10:47.975Z,9.680749
2022-12-18T10:11:47.962Z,9.680848
2022-12-18T10:12:47.980Z,9.681089
2022-12-18T10:13:48.025Z,9.681153
2022-12-18T10:14:47.942Z,9.681181
2022-12-18T10:15:47.976Z,9.681013
2022-12-18T10:16:47.940Z,9.681213
2022-12-18T10:17:47.922Z,9.681163
2022-12-18T10:18:47.947Z,9.681223
2022-12-18T10:19:47.918Z,9.681167
2022-12-18T10:20:47.923Z,9.681183
2022-12-18T10:21:47.893Z,9.680945
2022-12-18T10:22:47.906Z,9.680981
2022-12-18T10:23:48.789Z,9.680877
2022-12-18T10:24:47.872Z,9.680947
2022-12-18T10:25:47.868Z,9.681011
2022-12-18T10:26:47.906Z,9.680962
2022-12-18T10:27:47.900Z,9.680962
2022-12-18T10:28:47.881Z,9.680962
2022-12-18T10:29:48.326Z,9.680962
2022-12-18T10:30:48.259Z,9.680962
2022-12-18T10:31:47.820Z,9.680962
2022-12-18T10:32:47.836Z,9.680962
2022-12-18T10:33:47.812Z,9.680962
2022-12-18T10:34:48.039Z,9.680962
2022-12-18T10:35:47.810Z,9.680962
2022-12-18T10:36:47.803Z,9.680962
2022-12-18T10:37:47.797Z,9.680962
2022-12-18T10:38:47.806Z,9.680962
2022-12-18T10:39:47.787Z,9.680962
2022-12-18T10:40:47.779Z,9.680962
2022-12-18T10:41:47.778Z,9.680962
2022-12-18T10:42:47.755Z,9.680962
2022-12-18T10:43:47.780Z,9.680962
2022-12-18T10:44:47.774Z,9.680962
2022-12-18T10:45:47.811Z,9.680962
2022-12-18T10:46:47.795Z,9.680962
2022-12-18T10:47:47.748Z,9.680962
2022-12-18T10:48:47.732Z,9.680962
2022-12-18T10:49:47.738Z,9.680962
2022-12-18T10:51:10.486Z,9.680962
2022-12-18T10:51:48.701Z,9.680962
2022-12-18T10:52:47.699Z,9.680962
2022-12-18T10:53:48.432Z,9.680962
2022-12-18T10:54:47.692Z,9.680962
2022-12-18T10:55:48.034Z,9.680962
2022-12-18T10:56:47.677Z,9.680962
2022-12-18T10:57:47.664Z,9.680962
2022-12-18T10:58:47.650Z,9.680962
2022-12-18T10:59:47.663Z,9.680962
2022-12-18T11:00:47.642Z,9.680962
2022-12-18T11:01:47.876Z,9.680962
2022-12-18T11:02:47.802Z,9.680962
2022-12-18T11:03:47.698Z,9.680962
2022-12-18T11:04:47.626Z,9.680962
2022-12-18T11:05:47.636Z,9.680962
2022-12-18T11:06:47.618Z,9.680962
2022-12-18T11:07:47.601Z,9.680962
2022-12-18T11:08:47.590Z,9.680962
2022-12-18T11:09:47.585Z,9.680962
2022-12-18T11:10:47.575Z,9.680962
2022-12-18T11:11:47.599Z,9.680962
2022-12-18T11:12:47.581Z,9.680962
2022-12-18T11:13:47.559Z,9.680962
2022-12-18T11:14:47.753Z,9.680962
2022-12-18T11:15:47.598Z,9.680962
2022-12-18T11:17:23.793Z,9.680962
2022-12-18T11:17:48.631Z,9.680962
2022-12-18T11:18:47.524Z,9.680962
2022-12-18T11:19:47.542Z,9.680962
2022-12-18T11:20:47.525Z,9.680962
2022-12-18T11:21:47.513Z,9.680962
2022-12-18T11:22:47.523Z,9.680962
2022-12-18T11:23:47.497Z,9.680962
2022-12-18T11:25:08.335Z,9.680962
2022-12-18T11:25:48.497Z,9.680962
2022-12-18T11:26:47.465Z,9.680962
2022-12-18T11:27:47.479Z,9.680962
2022-12-18T11:28:47.448Z,9.680962
2022-12-18T11:29:47.477Z,9.680962
2022-12-18T11:30:47.441Z,9.680962
2022-12-18T11:31:47.503Z,9.680962
2022-12-18T11:32:47.435Z,9.680962
2022-12-18T11:34:05.132Z,9.680962
2022-12-18T11:34:48.447Z,9.680962
2022-12-18T11:35:47.406Z,9.680962
2022-12-18T11:36:47.419Z,9.680962
2022-12-18T11:37:47.397Z,9.680962
2022-12-18T11:38:47.405Z,9.680962
2022-12-18T11:39:47.387Z,9.680962
2022-12-18T11:40:47.390Z,9.680962
2022-12-18T11:41:47.380Z,9.680962
2022-12-18T11:42:47.366Z,9.680962
2022-12-18T11:43:47.366Z,9.680962
2022-12-18T11:44:47.370Z,9.680962